Time;durP1;ratioP1;P1;durP2;ratioP2;P2;SDS_P1;SDS_P2;PMS_P1;PMS_P2;Temp;Humidity;BMP_temperature;BMP_pressure;BME280_temperature;BME280_humidity;BME280_pressure;Samples;Min_cycle;Max_cycle;Signal;HPM_P1;HPM_P2
2022/05/15 00:01:52;;;;;;;9.20;4.10;;;;;;;9.63;100.00;100940.44;5073258;28;20236;-70
2022/05/15 00:04:18;;;;;;;8.37;2.80;;;;;;;9.62;100.00;100942.34;5073392;28;20171;-72
2022/05/15 00:06:44;;;;;;;12.03;3.20;;;;;;;9.63;100.00;100946.69;5073191;28;20178;-70
2022/05/15 00:09:09;;;;;;;4.73;2.83;;;;;;;9.69;100.00;100944.69;5073376;28;20796;-70
2022/05/15 00:11:34;;;;;;;10.20;3.30;;;;;;;9.69;100.00;100947.44;5073488;28;20171;-71
2022/05/15 00:14:02;;;;;;;3.77;2.73;;;;;;;9.64;100.00;100939.31;5073167;28;20545;-70
2022/05/15 00:16:29;;;;;;;10.77;3.10;;;;;;;9.64;100.00;100942.06;5073042;28;20621;-71
2022/05/15 00:18:54;;;;;;;5.70;2.80;;;;;;;9.65;100.00;100944.47;5072840;28;20201;-70
2022/05/15 00:21:20;;;;;;;4.17;2.53;;;;;;;9.70;100.00;100943.63;5073487;28;20672;-70
2022/05/15 00:23:45;;;;;;;9.33;3.03;;;;;;;9.72;100.00;100944.94;5073039;28;20652;-70
2022/05/15 00:26:11;;;;;;;4.67;2.50;;;;;;;9.75;100.00;100946.28;5073064;28;20194;-70
2022/05/15 00:28:36;;;;;;;7.13;2.70;;;;;;;9.80;100.00;100944.28;5072966;28;20171;-70
2022/05/15 00:31:03;;;;;;;8.37;2.67;;;;;;;9.80;100.00;100947.00;5072873;28;20261;-70
2022/05/15 00:33:28;;;;;;;8.53;2.97;;;;;;;9.74;100.00;100948.19;5072811;28;20170;-69
2022/05/15 00:35:54;;;;;;;5.87;2.60;;;;;;;9.67;100.00;100944.19;5072968;28;20162;-70
2022/05/15 00:38:19;;;;;;;4.07;2.90;;;;;;;9.69;100.00;100950.16;5072633;28;20573;-69
2022/05/15 00:40:47;;;;;;;5.10;2.37;;;;;;;9.61;100.00;100942.63;5072811;28;20540;-70
2022/05/15 00:43:33;;;;;;;5.57;3.07;;;;;;;9.56;100.00;100934.53;5072672;28;20265;-70
2022/05/15 00:45:58;;;;;;;6.47;2.90;;;;;;;9.43;100.00;100930.59;5072716;28;20182;-69
2022/05/15 00:48:24;;;;;;;4.10;2.73;;;;;;;9.36;100.00;100930.94;5072458;28;20171;-70
2022/05/15 00:50:50;;;;;;;7.37;3.40;;;;;;;9.34;100.00;100933.16;5072581;28;20179;-70
2022/05/15 00:53:15;;;;;;;4.10;2.80;;;;;;;9.29;100.00;100938.66;5072476;28;20622;-70
2022/05/15 00:55:46;;;;;;;10.27;3.27;;;;;;;9.24;100.00;100933.25;5072407;28;20170;-71
2022/05/15 00:58:24;;;;;;;6.63;3.30;;;;;;;9.21;100.00;100931.94;5071180;28;20194;-70
2022/05/15 01:00:50;;;;;;;13.13;2.97;;;;;;;9.22;100.00;100936.28;5073006;28;20224;-71
2022/05/15 01:03:18;;;;;;;4.40;2.60;;;;;;;9.19;100.00;100944.22;5072334;28;20163;-70
2022/05/15 01:05:47;;;;;;;7.67;3.60;;;;;;;9.10;100.00;100943.22;5072628;28;20189;-70
2022/05/15 01:08:12;;;;;;;3.97;2.60;;;;;;;9.07;100.00;100944.63;5072047;28;20175;-70
2022/05/15 01:10:42;;;;;;;5.47;2.70;;;;;;;9.07;100.00;100936.44;5072350;28;20603;-70
2022/05/15 01:13:10;;;;;;;7.03;3.73;;;;;;;9.09;100.00;100936.16;5072332;28;20174;-71
2022/05/15 01:15:36;;;;;;;5.40;2.70;;;;;;;9.19;100.00;100941.50;5072080;28;20541;-70
2022/05/15 01:18:03;;;;;;;5.33;2.37;;;;;;;9.30;100.00;100937.56;5071725;28;20174;-70
2022/05/15 01:20:30;;;;;;;4.50;3.27;;;;;;;9.35;100.00;100940.22;5072094;28;20250;-71
2022/05/15 01:22:56;;;;;;;6.30;2.70;;;;;;;9.37;100.00;100948.91;5071816;28;20542;-71
2022/05/15 01:25:28;;;;;;;5.87;2.90;;;;;;;9.34;100.00;100949.50;5071934;28;20179;-69
2022/05/15 01:27:56;;;;;;;8.53;2.67;;;;;;;9.24;100.00;100947.69;5071639;28;20254;-70
2022/05/15 01:30:22;;;;;;;5.00;2.90;;;;;;;9.10;100.00;100943.22;5070444;28;20613;-70
2022/05/15 01:32:48;;;;;;;6.73;3.13;;;;;;;9.02;100.00;100943.88;5071686;28;20183;-70
2022/05/15 01:35:13;;;;;;;4.17;2.90;;;;;;;8.92;100.00;100942.88;5071229;28;20228;-71
2022/05/15 01:37:39;;;;;;;6.87;3.33;;;;;;;8.85;100.00;100947.84;5071459;28;20178;-70
2022/05/15 01:40:06;;;;;;;8.27;3.60;;;;;;;8.79;100.00;100935.38;5071419;28;20251;-70
2022/05/15 01:42:32;;;;;;;5.80;3.30;;;;;;;8.75;100.00;100942.50;5070207;28;20189;-71
2022/05/15 01:44:57;;;;;;;5.93;3.27;;;;;;;8.70;100.00;100939.84;5071423;28;20205;-70
2022/05/15 01:47:23;;;;;;;4.93;3.63;;;;;;;8.69;100.00;100934.69;5071179;28;20167;-70
2022/05/15 01:49:48;;;;;;;5.80;3.40;;;;;;;8.59;100.00;100941.81;5071344;28;20179;-70
2022/05/15 01:52:14;;;;;;;4.03;2.80;;;;;;;8.59;100.00;100935.56;5071530;28;20254;-70
2022/05/15 01:54:39;;;;;;;4.77;3.10;;;;;;;8.69;100.00;100935.47;5071638;28;20690;-70
2022/05/15 01:57:05;;;;;;;8.70;2.77;;;;;;;8.75;100.00;100939.78;5071232;28;20663;-72
2022/05/15 01:59:31;;;;;;;4.43;2.77;;;;;;;8.73;100.00;100947.44;5071062;28;20198;-70
2022/05/15 02:01:56;;;;;;;5.80;2.87;;;;;;;8.75;100.00;100945.22;5071126;28;20545;-71
2022/05/15 02:04:21;;;;;;;6.23;3.03;;;;;;;8.76;100.00;100941.41;5071178;28;20177;-70
2022/05/15 02:06:47;;;;;;;6.40;3.10;;;;;;;8.70;100.00;100949.91;5071173;28;20253;-70
2022/05/15 02:09:12;;;;;;;5.73;3.17;;;;;;;8.59;100.00;100950.00;5070780;28;20232;-70
2022/05/15 02:11:38;;;;;;;9.67;3.40;;;;;;;8.52;100.00;100948.69;5071045;28;20205;-70
2022/05/15 02:14:04;;;;;;;3.57;2.57;;;;;;;8.41;100.00;100947.16;5071176;28;20217;-70
2022/05/15 02:16:31;;;;;;;5.33;4.17;;;;;;;8.43;100.00;100945.78;5071055;28;20175;-70
2022/05/15 02:18:57;;;;;;;8.07;3.77;;;;;;;8.52;100.00;100938.59;5070804;28;20191;-71
2022/05/15 02:21:22;;;;;;;5.63;3.50;;;;;;;8.60;100.00;100946.16;5071302;28;20529;-70
2022/05/15 02:23:47;;;;;;;7.50;3.63;;;;;;;8.54;100.00;100941.88;5071249;28;20270;-70
2022/05/15 02:26:13;;;;;;;11.00;2.93;;;;;;;8.51;100.00;100945.16;5067231;28;20552;-70
2022/05/15 02:28:38;;;;;;;7.37;3.20;;;;;;;8.46;100.00;100944.38;5070383;28;20183;-70
2022/05/15 02:31:05;;;;;;;4.80;3.13;;;;;;;8.44;100.00;100947.41;5071062;28;20250;-70
2022/05/15 02:33:30;;;;;;;12.83;4.00;;;;;;;8.46;100.00;100949.84;5070826;28;20691;-70
2022/05/15 02:35:56;;;;;;;9.37;3.60;;;;;;;8.51;100.00;100955.22;5070633;28;20253;-70
2022/05/15 02:38:21;;;;;;;7.33;3.50;;;;;;;8.52;100.00;100956.84;5070537;28;20198;-71
2022/05/15 02:40:46;;;;;;;5.57;3.73;;;;;;;8.43;100.00;100947.69;5070732;28;20175;-70
2022/05/15 02:43:12;;;;;;;8.27;3.70;;;;;;;8.32;100.00;100955.09;5070566;28;20653;-70
2022/05/15 02:45:37;;;;;;;6.73;3.27;;;;;;;8.32;100.00;100955.09;5070739;28;20206;-71
2022/05/15 02:48:03;;;;;;;6.33;3.70;;;;;;;8.26;100.00;100959.75;5070574;28;20194;-70
2022/05/15 02:53:12;;;;;;;7.20;3.83;;;;;;;8.13;100.00;100956.84;5070673;28;20211;-71
2022/05/15 02:55:38;;;;;;;5.33;3.53;;;;;;;8.08;100.00;100960.41;5070524;28;20575;-71
2022/05/15 02:58:04;;;;;;;6.13;3.23;;;;;;;8.01;100.00;100954.47;5070382;28;20719;-70
2022/05/15 03:00:30;;;;;;;9.03;3.37;;;;;;;7.94;100.00;100952.06;5070389;28;20171;-71
2022/05/15 03:02:55;;;;;;;6.80;3.77;;;;;;;7.93;100.00;100952.34;5070612;28;20548;-70
2022/05/15 03:05:21;;;;;;;7.47;3.50;;;;;;;7.93;100.00;100945.00;5070521;28;20678;-70
2022/05/15 03:07:48;;;;;;;8.23;3.67;;;;;;;7.93;100.00;100958.59;5070575;28;20511;-70
2022/05/15 03:10:17;;;;;;;11.07;3.60;;;;;;;7.87;100.00;100948.03;5070437;28;20579;-70
2022/05/15 03:12:42;;;;;;;7.47;3.73;;;;;;;7.87;100.00;100950.75;5069199;28;20179;-70
2022/05/15 03:15:11;;;;;;;7.03;4.10;;;;;;;7.89;100.00;100952.09;5070357;28;20228;-71
2022/05/15 03:17:37;;;;;;;7.50;3.63;;;;;;;7.97;100.00;100945.25;5070285;28;20167;-71
2022/05/15 03:20:06;;;;;;;8.23;4.13;;;;;;;8.10;100.00;100949.25;5070208;28;20683;-71
2022/05/15 03:22:32;;;;;;;9.87;4.00;;;;;;;8.22;100.00;100955.97;5073602;28;20210;-71
2022/05/15 03:24:57;;;;;;;5.87;3.20;;;;;;;8.22;100.00;100955.97;5074234;28;20167;-70
2022/05/15 03:27:22;;;;;;;6.23;3.77;;;;;;;8.17;100.00;100952.47;5073989;28;20201;-72
2022/05/15 03:29:48;;;;;;;8.40;3.30;;;;;;;8.07;100.00;100956.06;5074083;28;20200;-70
2022/05/15 03:32:13;;;;;;;8.90;3.77;;;;;;;8.03;100.00;100957.72;5073988;28;20175;-70
2022/05/15 03:34:39;;;;;;;10.43;4.17;;;;;;;7.99;100.00;100954.75;5073963;28;20182;-71
2022/05/15 03:37:04;;;;;;;8.67;3.67;;;;;;;8.02;100.00;100969.72;5071244;28;20188;-71
2022/05/15 03:39:30;;;;;;;8.03;3.93;;;;;;;8.02;100.00;100970.53;5065692;28;20293;-71
2022/05/15 03:41:56;;;;;;;10.00;4.60;;;;;;;7.97;100.00;100965.13;5073876;28;20617;-71
2022/05/15 03:44:22;;;;;;;5.63;4.10;;;;;;;7.92;100.00;100973.28;5072321;28;20681;-71
2022/05/15 03:46:47;;;;;;;11.17;4.87;;;;;;;7.91;100.00;100977.09;5074028;28;20228;-71
2022/05/15 03:49:16;;;;;;;8.13;4.17;;;;;;;7.97;100.00;100967.84;5073539;28;20266;-71
2022/05/15 03:51:41;;;;;;;6.43;4.40;;;;;;;8.05;100.00;100972.66;5073483;28;20693;-71
2022/05/15 03:54:08;;;;;;;6.53;3.83;;;;;;;8.16;100.00;100969.91;5073638;28;20304;-71
2022/05/15 03:56:51;;;;;;;7.23;4.90;;;;;;;8.22;100.00;100976.91;5073552;28;20552;-70
2022/05/15 03:59:38;;;;;;;8.33;4.20;;;;;;;8.35;100.00;100979.84;5073772;28;20194;-71
2022/05/15 04:02:05;;;;;;;5.50;3.73;;;;;;;8.44;100.00;100985.53;5076028;28;20668;-71
2022/05/15 04:04:32;;;;;;;6.77;3.67;;;;;;;8.47;100.00;100984.94;5072632;28;20526;-71
2022/05/15 04:06:58;;;;;;;7.20;4.23;;;;;;;8.49;100.00;100981.94;5073712;28;20617;-70
2022/05/15 04:09:25;;;;;;;9.70;4.30;;;;;;;8.50;100.00;100989.81;5073409;28;20227;-70
2022/05/15 04:11:50;;;;;;;6.03;3.80;;;;;;;8.53;100.00;100997.41;5073563;28;20180;-71
2022/05/15 04:14:16;;;;;;;4.23;3.27;;;;;;;8.50;100.00;100998.00;5073374;28;20186;-70
2022/05/15 04:16:41;;;;;;;7.17;3.73;;;;;;;8.53;100.00;100999.31;5073229;28;20171;-71
2022/05/15 04:19:06;;;;;;;4.63;3.90;;;;;;;8.59;100.00;101004.47;5073076;28;20206;-70
2022/05/15 04:21:37;;;;;;;8.07;4.20;;;;;;;8.71;100.00;100995.94;5073407;28;20179;-70
2022/05/15 04:24:05;;;;;;;5.60;3.87;;;;;;;8.85;100.00;101001.53;5073184;28;20171;-71
2022/05/15 04:26:30;;;;;;;6.73;4.07;;;;;;;8.91;100.00;101003.91;5072999;28;20214;-71
2022/05/15 04:28:55;;;;;;;9.27;4.27;;;;;;;8.99;100.00;101005.22;5072821;28;20193;-71
2022/05/15 04:31:21;;;;;;;9.07;4.37;;;;;;;9.08;100.00;101006.22;5072962;28;20185;-69
2022/05/15 04:33:46;;;;;;;7.20;4.53;;;;;;;9.11;100.00;101010.28;5071446;28;20258;-70
2022/05/15 04:36:11;;;;;;;10.80;4.40;;;;;;;9.07;100.00;101004.59;5072753;28;20175;-70
2022/05/15 04:38:37;;;;;;;10.17;4.37;;;;;;;9.04;100.00;101010.63;5072530;28;20200;-71
2022/05/15 04:41:02;;;;;;;9.80;4.67;;;;;;;9.05;100.00;101008.72;5072757;28;20180;-71
2022/05/15 04:43:27;;;;;;;9.47;4.97;;;;;;;9.15;100.00;101012.16;5072628;28;20273;-71
2022/05/15 04:45:53;;;;;;;9.50;4.30;;;;;;;9.22;100.00;101006.34;5072594;28;20254;-71
2022/05/15 04:48:18;;;;;;;9.70;4.67;;;;;;;9.35;100.00;101005.66;5072478;28;20323;-71
2022/05/15 04:50:43;;;;;;;4.13;3.63;;;;;;;9.48;100.00;101004.97;5072616;28;20261;-70
2022/05/15 04:53:09;;;;;;;6.23;3.83;;;;;;;9.61;100.00;101006.19;5072547;28;20175;-71
2022/05/15 04:55:35;;;;;;;6.53;4.17;;;;;;;9.71;100.00;101013.47;5072801;28;20175;-71
2022/05/15 04:58:01;;;;;;;9.37;4.70;;;;;;;9.70;100.00;101017.28;5070899;28;20187;-71
2022/05/15 05:00:26;;;;;;;10.80;4.87;;;;;;;9.73;100.00;101024.88;5072230;28;20185;-71
2022/05/15 05:02:51;;;;;;;9.97;4.97;;;;;;;9.79;100.00;101020.97;5072318;28;20186;-70
2022/05/15 05:05:17;;;;;;;7.03;4.50;;;;;;;9.89;100.00;101033.69;5072240;28;20173;-70
2022/05/15 05:07:42;;;;;;;7.67;4.37;;;;;;;10.02;100.00;101031.06;5072158;28;20578;-71
2022/05/15 05:10:10;;;;;;;8.10;5.10;;;;;;;10.02;100.00;101033.00;5072038;28;20178;-71
2022/05/15 05:12:36;;;;;;;13.17;4.70;;;;;;;10.08;100.00;101035.34;5072103;28;20837;-70
2022/05/15 05:15:03;;;;;;;7.13;4.83;;;;;;;10.11;100.00;101033.94;5072596;28;20174;-71
2022/05/15 05:17:28;;;;;;;8.47;4.60;;;;;;;10.04;100.00;101033.50;5072301;28;20174;-70
2022/05/15 05:19:53;;;;;;;7.73;4.27;;;;;;;10.20;100.00;101032.19;5072390;28;20232;-70
2022/05/15 05:22:19;;;;;;;8.13;4.53;;;;;;;10.27;100.00;101034.56;5072221;28;20211;-70
2022/05/15 05:24:44;;;;;;;9.90;4.73;;;;;;;10.27;100.00;101038.13;5072179;28;20258;-71
2022/05/15 05:27:09;;;;;;;7.63;5.57;;;;;;;10.31;100.00;101038.34;5072109;28;20539;-71
2022/05/15 05:29:35;;;;;;;16.43;4.90;;;;;;;10.38;100.00;101036.88;5071993;28;20604;-71
2022/05/15 05:32:01;;;;;;;7.27;4.00;;;;;;;10.46;100.00;101035.41;5071931;28;20745;-71
2022/05/15 05:34:26;;;;;;;7.53;5.53;;;;;;;10.57;100.00;101036.06;5071740;28;20174;-71
2022/05/15 05:36:52;;;;;;;5.83;5.00;;;;;;;10.60;100.00;101035.47;5071747;28;20166;-71
2022/05/15 05:39:17;;;;;;;5.93;4.40;;;;;;;10.68;100.00;101041.06;5071668;28;20241;-71
2022/05/15 05:41:43;;;;;;;6.43;4.10;;;;;;;10.88;100.00;101036.38;5071983;28;20622;-70
2022/05/15 05:44:08;;;;;;;10.87;5.07;;;;;;;10.97;100.00;101038.13;5071134;28;20217;-71
2022/05/15 05:46:34;;;;;;;5.00;4.50;;;;;;;11.19;100.00;101032.00;5071718;28;20225;-71
2022/05/15 05:48:59;;;;;;;8.27;5.10;;;;;;;11.19;100.00;101033.94;5071768;28;20679;-70
2022/05/15 05:51:25;;;;;;;6.03;4.80;;;;;;;11.22;99.76;101030.59;5071831;28;20610;-71
2022/05/15 05:53:50;;;;;;;12.00;5.07;;;;;;;11.35;99.39;101038.00;5071716;28;20676;-74
2022/05/15 05:56:16;;;;;;;12.73;4.77;;;;;;;11.45;96.61;101035.09;5071802;28;20262;-71
2022/05/15 05:58:41;;;;;;;9.17;4.50;;;;;;;11.68;94.47;101040.66;5069853;28;20202;-70
2022/05/15 06:01:07;;;;;;;7.37;3.83;;;;;;;11.92;92.66;101049.53;5071381;28;20201;-73
2022/05/15 06:06:17;;;;;;;9.40;4.63;;;;;;;11.90;90.37;101038.88;5071654;28;20248;-72
2022/05/15 06:08:43;;;;;;;8.43;4.17;;;;;;;12.07;90.79;101042.91;5070007;28;20210;-72
2022/05/15 06:11:12;;;;;;;11.37;4.23;;;;;;;12.16;91.36;101041.09;5071664;28;20261;-71
2022/05/15 06:13:39;;;;;;;10.57;3.87;;;;;;;12.30;90.16;101039.13;5071733;28;20209;-72
2022/05/15 06:16:05;;;;;;;8.17;4.17;;;;;;;12.44;89.25;101047.28;5071529;28;20634;-71
2022/05/15 06:18:31;;;;;;;6.37;3.53;;;;;;;12.61;89.33;101044.72;5071197;28;20285;-71
2022/05/15 06:20:57;;;;;;;7.47;4.10;;;;;;;12.78;88.69;101033.88;5066744;28;20277;-71
2022/05/15 06:23:22;;;;;;;5.80;3.30;;;;;;;12.82;86.98;101039.53;5069936;28;20649;-73
2022/05/15 06:25:47;;;;;;;6.53;4.03;;;;;;;12.84;84.48;101037.28;5071486;28;20186;-70
2022/05/15 06:28:13;;;;;;;7.30;4.23;;;;;;;13.02;84.19;101041.78;5071126;28;20542;-70
2022/05/15 06:30:39;;;;;;;5.57;4.10;;;;;;;12.98;83.16;101029.00;5071504;28;20269;-74
2022/05/15 06:33:05;;;;;;;6.57;4.03;;;;;;;12.87;83.70;101030.38;5071358;28;20293;-71
2022/05/15 06:35:31;;;;;;;9.27;4.37;;;;;;;13.03;84.54;101037.94;5071208;28;20267;-70
2022/05/15 06:38:00;;;;;;;6.20;4.90;;;;;;;13.06;82.64;101031.81;5071089;28;20281;-71
2022/05/15 06:40:26;;;;;;;10.13;4.17;;;;;;;13.27;82.86;101034.03;5071163;28;20195;-71
2022/05/15 06:42:52;;;;;;;8.80;4.80;;;;;;;13.27;82.03;101032.09;5067696;28;20201;-71
2022/05/15 06:45:17;;;;;;;9.93;3.87;;;;;;;13.42;82.02;101035.56;5070471;28;20187;-71
2022/05/15 06:47:42;;;;;;;5.90;3.90;;;;;;;13.58;81.33;101037.56;5070643;28;20552;-70
2022/05/15 06:50:09;;;;;;;6.97;3.50;;;;;;;13.61;80.49;101033.41;5071124;28;20184;-71
2022/05/15 06:52:36;;;;;;;7.83;4.50;;;;;;;13.77;79.93;101020.88;5070884;28;20472;-70
2022/05/15 06:55:04;;;;;;;9.23;4.57;;;;;;;13.89;79.47;101021.06;5070877;28;20170;-71
2022/05/15 06:57:31;;;;;;;5.87;4.70;;;;;;;13.88;79.97;101018.59;5074190;28;20186;-71
2022/05/15 06:59:58;;;;;;;7.20;4.60;;;;;;;14.11;80.94;101025.63;5074916;28;20233;-72
2022/05/15 07:02:26;;;;;;;6.93;4.57;;;;;;;14.04;80.46;101028.03;5074657;28;20260;-72
2022/05/15 07:04:54;;;;;;;10.47;4.97;;;;;;;13.94;79.27;101028.34;5074668;28;20625;-74
2022/05/15 07:07:20;;;;;;;5.90;4.73;;;;;;;14.08;79.42;101029.00;5074599;28;20182;-72
2022/05/15 07:09:47;;;;;;;4.90;4.10;;;;;;;14.17;79.95;101035.31;5074495;28;20284;-72
2022/05/15 07:12:12;;;;;;;7.40;4.47;;;;;;;14.23;78.34;101034.06;5074634;28;20198;-72
2022/05/15 07:14:38;;;;;;;7.27;4.30;;;;;;;14.30;77.97;101031.63;5074594;28;20275;-71
2022/05/15 07:17:04;;;;;;;7.67;4.40;;;;;;;14.43;77.55;101026.28;5074570;28;20179;-71
2022/05/15 07:19:30;;;;;;;7.97;4.20;;;;;;;14.56;76.52;101023.41;5074421;28;20256;-70
2022/05/15 07:21:55;;;;;;;5.80;4.23;;;;;;;14.57;77.37;101032.47;5074481;28;20179;-72
2022/05/15 07:24:22;;;;;;;7.27;4.57;;;;;;;14.91;77.13;101039.09;5074561;28;20170;-73
2022/05/15 07:26:48;;;;;;;9.20;4.03;;;;;;;15.08;76.21;101036.31;5071732;28;20539;-71
2022/05/15 07:29:15;;;;;;;12.70;4.30;;;;;;;14.99;75.33;101032.75;5071282;28;20194;-72
2022/05/15 07:31:40;;;;;;;9.83;3.80;;;;;;;15.09;75.10;101024.19;5074169;28;20248;-72
2022/05/15 07:34:05;;;;;;;8.07;3.57;;;;;;;15.26;74.64;101026.06;5074632;28;20179;-74
2022/05/15 07:36:31;;;;;;;5.47;2.83;;;;;;;15.22;73.44;101025.94;5073897;28;20652;-73
2022/05/15 07:38:56;;;;;;;8.07;3.00;;;;;;;15.39;72.96;101031.38;5073962;28;20198;-71
2022/05/15 07:41:21;;;;;;;5.63;3.63;;;;;;;15.50;71.81;101031.00;5074151;28;20259;-72
2022/05/15 07:43:47;;;;;;;8.13;3.00;;;;;;;15.49;72.57;101024.69;5074093;28;20645;-71
2022/05/15 07:46:12;;;;;;;9.00;3.73;;;;;;;15.61;73.28;101033.09;5074103;28;20183;-72
2022/05/15 07:48:38;;;;;;;6.17;3.60;;;;;;;15.73;71.65;101032.38;5073922;28;20175;-71
2022/05/15 07:51:04;;;;;;;5.93;2.90;;;;;;;16.03;71.72;101027.69;5073984;28;20175;-71
2022/05/15 07:53:29;;;;;;;5.83;3.10;;;;;;;15.99;70.03;101029.50;5074023;28;20175;-73
2022/05/15 07:55:56;;;;;;;7.30;2.60;;;;;;;15.99;69.63;101015.72;5073932;28;20202;-72
2022/05/15 07:58:23;;;;;;;5.20;2.80;;;;;;;16.11;70.20;101026.03;5073632;28;20626;-71
2022/05/15 08:00:50;;;;;;;3.90;2.93;;;;;;;16.43;70.48;101028.06;5073755;28;20178;-72
2022/05/15 08:03:16;;;;;;;5.93;2.97;;;;;;;16.19;69.60;101025.94;5073870;28;20174;-72
2022/05/15 08:08:25;;;;;;;5.33;3.00;;;;;;;16.22;68.93;101021.75;5072642;28;20239;-72
2022/05/15 08:10:51;;;;;;;8.20;3.63;;;;;;;16.25;69.24;101018.31;5073173;28;21421;-73
2022/05/15 08:13:23;;;;;;;4.47;2.63;;;;;;;16.34;69.04;101010.75;5073144;28;20181;-71
2022/05/15 08:15:48;;;;;;;7.83;3.57;;;;;;;16.35;67.89;101009.63;5073101;28;20171;-73
2022/05/15 08:24:00;;;;;;;8.30;2.90;;;;;;;16.97;65.38;101017.06;5072967;28;20258;-72
2022/05/15 08:26:27;;;;;;;9.87;2.70;;;;;;;16.90;60.46;101014.03;5072929;28;20166;-71
2022/05/15 08:28:53;;;;;;;8.67;2.70;;;;;;;17.03;60.95;101020.41;5072603;28;20170;-71
2022/05/15 08:31:20;;;;;;;8.40;2.60;;;;;;;17.10;62.39;101015.16;5072688;28;20162;-71
2022/05/15 08:33:47;;;;;;;7.73;2.33;;;;;;;17.22;61.35;101023.47;5071422;28;20178;-73
2022/05/15 08:36:15;;;;;;;8.33;2.70;;;;;;;17.12;60.55;101010.09;5072436;28;20171;-71
2022/05/15 08:38:40;;;;;;;9.17;2.87;;;;;;;17.26;62.21;101010.56;5072448;28;20279;-72
2022/05/15 08:41:32;;;;;;;7.23;2.33;;;;;;;17.22;60.21;101010.47;5072616;28;20200;-71
2022/05/15 08:44:18;;;;;;;4.20;2.17;;;;;;;17.40;60.59;101013.81;5064008;28;20194;-72
2022/05/15 08:47:15;;;;;;;6.87;2.77;;;;;;;17.35;59.26;101010.44;5072462;28;20204;-71
2022/05/15 08:49:47;;;;;;;4.67;2.43;;;;;;;17.50;60.56;101013.38;5072319;28;20656;-70
2022/05/15 08:52:13;;;;;;;6.27;2.23;;;;;;;17.20;58.84;101009.16;5072599;28;20178;-71
2022/05/15 08:54:48;;;;;;;5.87;2.27;;;;;;;17.36;59.98;101017.59;5072458;28;20179;-72
2022/05/15 08:57:19;;;;;;;5.10;2.90;;;;;;;17.56;59.31;101011.19;5072171;28;20167;-72
2022/05/15 08:59:58;;;;;;;5.43;2.40;;;;;;;17.49;59.20;101011.72;5072164;28;20281;-71
2022/05/15 09:02:25;;;;;;;4.97;2.50;;;;;;;17.45;59.69;101012.78;5072126;28;20656;-71
2022/05/15 09:04:52;;;;;;;6.23;2.67;;;;;;;17.38;59.51;101012.56;5072146;28;20257;-71
2022/05/15 09:07:36;;;;;;;5.63;2.10;;;;;;;17.47;59.44;101007.72;5072109;28;20569;-71
2022/05/15 09:10:16;;;;;;;4.90;1.77;;;;;;;17.31;59.14;101013.09;5072072;28;20179;-71
2022/05/15 09:12:47;;;;;;;5.67;2.30;;;;;;;17.46;58.97;101015.19;5071911;28;20167;-72
2022/05/15 09:15:18;;;;;;;6.67;2.80;;;;;;;17.63;60.12;101018.88;5072167;28;20214;-71
2022/05/15 09:17:45;;;;;;;7.87;2.47;;;;;;;18.04;59.54;101010.38;5071847;28;20171;-71
2022/05/15 09:20:26;;;;;;;5.53;2.90;;;;;;;17.89;57.96;101013.03;5071073;28;20213;-71
2022/05/15 09:23:22;;;;;;;4.93;2.30;;;;;;;17.99;59.68;101009.81;5071776;28;20633;-73
2022/05/15 09:25:56;;;;;;;6.10;2.47;;;;;;;18.32;58.65;101007.66;5071745;28;20173;-72
2022/05/15 09:28:26;;;;;;;4.60;2.80;;;;;;;18.27;57.27;101010.69;5071516;28;20166;-72
2022/05/15 09:30:53;;;;;;;4.93;2.27;;;;;;;18.01;56.62;101001.97;5071656;28;20618;-71
2022/05/15 09:33:21;;;;;;;8.80;2.50;;;;;;;18.39;58.27;101012.63;5071634;28;20554;-71
2022/05/15 09:35:47;;;;;;;6.13;2.20;;;;;;;18.07;58.04;101001.38;5071335;28;20174;-70
2022/05/15 09:38:29;;;;;;;4.63;2.47;;;;;;;18.32;59.64;101004.91;5071246;28;20556;-72
2022/05/15 09:44:04;;;;;;;6.50;2.00;;;;;;;18.17;58.08;101005.63;5070615;28;20247;-70
2022/05/15 09:46:30;;;;;;;5.30;2.20;;;;;;;18.29;58.02;100996.50;5069825;28;20258;-71
2022/05/15 09:48:58;;;;;;;6.70;2.40;;;;;;;18.56;56.45;100994.91;5070837;28;20707;-72
2022/05/15 09:51:44;;;;;;;9.10;2.60;;;;;;;18.40;56.27;100998.44;5061921;28;20186;-71
2022/05/15 09:54:27;;;;;;;6.17;2.57;;;;;;;18.59;56.05;100983.94;5069121;28;20265;-71
2022/05/15 09:57:27;;;;;;;4.63;2.53;;;;;;;18.44;55.20;100982.72;5066059;28;20198;-71
2022/05/15 09:59:56;;;;;;;5.87;2.40;;;;;;;18.35;54.57;100976.53;5067624;28;20218;-72
2022/05/15 10:02:37;;;;;;;7.60;2.63;;;;;;;18.46;55.34;100987.91;5070267;28;20277;-71
2022/05/15 10:05:11;;;;;;;5.97;2.93;;;;;;;18.64;54.84;100986.47;5050809;28;20222;-71
2022/05/15 10:07:44;;;;;;;5.47;1.90;;;;;;;18.88;54.32;100987.53;5050768;28;20183;-71
2022/05/15 10:10:16;;;;;;;3.57;2.40;;;;;;;18.94;53.99;101000.75;5058364;28;20240;-73
2022/05/15 10:12:45;;;;;;;6.20;2.63;;;;;;;19.29;54.27;100987.06;5070681;28;20178;-71
2022/05/15 10:15:13;;;;;;;7.00;2.20;;;;;;;19.17;54.59;100989.91;5069523;28;20590;-71
2022/05/15 10:17:46;;;;;;;3.50;1.77;;;;;;;19.46;53.22;100985.88;5070547;28;20181;-71
2022/05/15 10:20:21;;;;;;;5.83;2.40;;;;;;;19.39;52.29;100979.38;5070474;28;20202;-72
2022/05/15 10:22:53;;;;;;;6.13;2.73;;;;;;;18.98;52.60;100987.03;5070832;28;20170;-72
2022/05/15 10:25:34;;;;;;;5.27;3.00;;;;;;;19.07;52.69;100968.25;5070520;28;20166;-73
2022/05/15 10:28:19;;;;;;;4.07;2.30;;;;;;;19.43;52.51;100977.50;5069947;28;20253;-71
2022/05/15 10:31:25;;;;;;;5.33;2.60;;;;;;;19.17;52.71;100978.03;5056266;28;20647;-72
2022/05/15 10:33:54;;;;;;;8.43;2.67;;;;;;;19.10;52.93;100978.66;5049493;28;20277;-71
2022/05/15 10:36:38;;;;;;;7.17;2.83;;;;;;;19.03;53.00;100972.91;5072934;28;20167;-71
2022/05/15 10:39:24;;;;;;;5.93;3.00;;;;;;;19.39;54.08;100969.09;5074432;28;20199;-71
2022/05/15 10:42:10;;;;;;;5.27;2.97;;;;;;;19.71;52.44;100963.53;5073101;28;20166;-71
2022/05/15 10:44:42;;;;;;;5.27;2.20;;;;;;;19.61;51.50;100962.94;5071083;28;20170;-71
2022/05/15 10:47:25;;;;;;;5.73;2.60;;;;;;;19.63;50.25;100957.00;5071020;28;20162;-71
2022/05/15 10:49:59;;;;;;;3.47;1.90;;;;;;;19.59;49.73;100961.69;5070952;28;20202;-71
2022/05/15 10:52:40;;;;;;;5.20;2.30;;;;;;;19.93;52.41;100960.06;5070623;28;20178;-72
2022/05/15 10:58:34;;;;;;;7.93;2.60;;;;;;;20.02;49.88;100952.38;5063668;28;20328;-71
2022/05/15 11:01:57;;;;;;;6.27;2.80;;;;;;;19.86;50.04;100943.28;5070476;28;20174;-71
2022/05/15 11:04:41;;;;;;;7.00;2.57;;;;;;;19.52;50.78;100947.59;5028366;28;20197;-71
2022/05/15 11:07:22;;;;;;;5.40;2.27;;;;;;;19.84;51.75;100949.19;5070841;28;20174;-71
2022/05/15 11:10:01;;;;;;;7.10;2.30;;;;;;;19.99;50.06;100942.00;5070810;28;20165;-71
2022/05/15 11:12:27;;;;;;;5.00;2.00;;;;;;;20.42;51.03;100937.38;5070752;28;20171;-71
2022/05/15 11:15:03;;;;;;;5.63;2.37;;;;;;;20.69;51.18;100932.75;5070723;28;20174;-71
2022/05/15 11:17:40;;;;;;;4.60;2.27;;;;;;;20.27;49.23;100929.91;5069659;28;20182;-70
2022/05/15 11:20:22;;;;;;;4.27;2.30;;;;;;;20.41;49.00;100927.41;5070437;28;20194;-72
2022/05/15 11:22:53;;;;;;;5.70;2.40;;;;;;;19.77;49.48;100924.06;5070632;28;20167;-72
2022/05/15 11:25:28;;;;;;;8.07;2.20;;;;;;;20.12;49.43;100929.63;5070289;28;20205;-70
2022/05/15 11:27:58;;;;;;;5.37;2.50;;;;;;;19.98;49.97;100926.53;5070150;28;20207;-71
2022/05/15 11:30:38;;;;;;;5.10;2.80;;;;;;;19.86;50.40;100919.13;5070796;28;20206;-71
2022/05/15 11:33:18;;;;;;;4.60;2.50;;;;;;;20.49;50.65;100926.41;5070482;28;20151;-71
2022/05/15 11:36:08;;;;;;;4.73;2.27;;;;;;;20.79;48.97;100921.81;5068455;28;20546;-71
2022/05/15 11:38:46;;;;;;;5.53;2.97;;;;;;;20.95;49.54;100907.81;5069656;28;20167;-71
2022/05/15 11:41:33;;;;;;;6.17;3.37;;;;;;;20.68;49.50;100904.16;5070182;28;20174;-71
2022/05/15 11:44:00;;;;;;;7.47;2.50;;;;;;;20.22;49.83;100908.78;5073902;28;20186;-71
2022/05/15 11:46:44;;;;;;;11.83;3.10;;;;;;;20.83;50.96;100915.53;5073675;28;20175;-71
2022/05/15 11:49:29;;;;;;;7.47;2.50;;;;;;;20.63;48.69;100906.44;5073692;28;20265;-71
2022/05/15 11:52:03;;;;;;;8.97;3.27;;;;;;;20.78;49.27;100888.88;5073523;28;20175;-71
2022/05/15 11:54:31;;;;;;;4.03;2.07;;;;;;;20.41;49.62;100894.13;5073600;28;20177;-71